createdAt,value
2019-02-27T00:00:27.783Z,74.64
2019-02-27T00:01:08.402Z,74.64
2019-02-27T00:01:49.816Z,74.64
2019-02-27T00:02:29.611Z,74.64
2019-02-27T00:03:10.380Z,74.64
2019-02-27T00:03:51.013Z,74.54
2019-02-27T00:04:34.599Z,74.54
2019-02-27T00:05:12.202Z,74.54
2019-02-27T00:05:52.848Z,74.16
2019-02-27T00:06:33.455Z,74.26
2019-02-27T00:07:14.048Z,74.16
2019-02-27T00:07:55.022Z,74.16
2019-02-27T00:08:35.468Z,74.35
2019-02-27T00:09:16.180Z,74.26
2019-02-27T00:09:56.828Z,74.64
2019-02-27T00:10:39.226Z,74.35
2019-02-27T00:11:18.134Z,74.06
2019-02-27T00:11:58.778Z,74.16
2019-02-27T00:12:39.432Z,74.35
2019-02-27T00:13:24.659Z,74.16
2019-02-27T00:14:00.955Z,74.16
2019-02-27T00:14:41.554Z,74.35
2019-02-27T00:15:22.200Z,74.16
2019-02-27T00:17:18.013Z,74.35
2019-02-27T00:19:32.963Z,74.44
2019-02-27T00:20:13.653Z,74.44
2019-02-27T00:20:54.305Z,74.16
2019-02-27T00:21:35.100Z,74.16
2019-02-27T00:22:17.531Z,73.97
2019-02-27T00:22:56.348Z,74.35
2019-02-27T00:23:37.111Z,74.35
2019-02-27T00:24:17.823Z,74.44
2019-02-27T00:25:02.966Z,74.06
2019-02-27T00:25:39.279Z,74.26
2019-02-27T00:26:20.068Z,74.16
2019-02-27T00:27:00.783Z,74.16
2019-02-27T00:27:41.630Z,74.16
2019-02-27T00:28:23.315Z,74.26
2019-02-27T00:29:02.970Z,74.26
2019-02-27T00:29:43.692Z,74.26
2019-02-27T00:30:24.289Z,74.35
2019-02-27T00:31:04.898Z,74.06
2019-02-27T00:31:46.181Z,74.26
2019-02-27T00:32:26.235Z,74.16
2019-02-27T00:33:06.805Z,74.16
2019-02-27T00:33:47.512Z,74.44
2019-02-27T00:34:28.212Z,74.54
2019-02-27T00:35:08.941Z,74.35
2019-02-27T00:35:49.586Z,74.35
2019-02-27T00:36:30.261Z,73.68
2019-02-27T00:37:10.873Z,73.97
2019-02-27T00:37:52.030Z,73.97
2019-02-27T00:38:32.086Z,73.97
2019-02-27T00:39:12.696Z,73.77
2019-02-27T00:39:53.308Z,73.97
2019-02-27T00:40:38.416Z,74.54
2019-02-27T00:41:14.732Z,73.87
2019-02-27T00:41:55.403Z,74.06
2019-02-27T00:42:36.108Z,73.87
2019-02-27T00:43:16.705Z,73.97
2019-02-27T00:44:01.033Z,73.97
2019-02-27T00:44:38.022Z,73.87
2019-02-27T00:45:18.707Z,73.87
2019-02-27T00:45:59.375Z,73.87
2019-02-27T00:46:40.085Z,73.87
2019-02-27T00:47:20.796Z,73.97
2019-02-27T00:48:01.380Z,73.49
2019-02-27T00:48:42.075Z,73.87
2019-02-27T00:49:22.689Z,74.35
2019-02-27T00:50:06.491Z,73.97
2019-02-27T00:50:44.179Z,73.97
2019-02-27T00:51:24.867Z,73.97
2019-02-27T00:52:05.519Z,73.87
2019-02-27T00:52:46.218Z,73.97
2019-02-27T00:53:26.929Z,74.16
2019-02-27T00:54:07.665Z,73.97
2019-02-27T00:54:48.325Z,73.87
2019-02-27T00:55:29.014Z,73.97
2019-02-27T00:56:11.901Z,73.87
2019-02-27T00:56:50.393Z,74.06
2019-02-27T00:57:31.053Z,73.87
2019-02-27T00:58:11.695Z,73.87
2019-02-27T00:58:52.330Z,74.16
2019-02-27T00:59:33.664Z,73.97
2019-02-27T01:00:13.710Z,73.97
2019-02-27T01:02:08.784Z,73.97
2019-02-27T01:02:52.582Z,74.06
2019-02-27T01:03:30.065Z,74.16
2019-02-27T01:04:10.771Z,73.87
2019-02-27T01:04:51.446Z,73.87
2019-02-27T01:05:32.165Z,73.97
2019-02-27T01:06:14.598Z,74.16
2019-02-27T01:06:53.551Z,73.87
2019-02-27T01:07:34.127Z,73.97
2019-02-27T01:08:14.725Z,73.97
2019-02-27T01:08:55.374Z,73.39
2019-02-27T01:09:37.179Z,73.68
2019-02-27T01:10:17.007Z,74.16
2019-02-27T01:10:57.571Z,74.06
2019-02-27T01:11:38.189Z,73.97
2019-02-27T01:12:18.869Z,73.87
2019-02-27T01:12:59.549Z,73.87
2019-02-27T01:13:40.149Z,73.87
2019-02-27T01:14:20.745Z,73.3
2019-02-27T01:15:01.376Z,73.87
2019-02-27T01:15:44.649Z,73.49
2019-02-27T01:16:22.703Z,73.58
2019-02-27T01:17:03.290Z,73.68
2019-02-27T01:17:43.881Z,73.49
2019-02-27T01:18:24.479Z,74.06
2019-02-27T01:19:05.352Z,73.68
2019-02-27T01:19:45.863Z,73.49
2019-02-27T01:20:26.507Z,73.3
2019-02-27T01:21:07.103Z,74.06
2019-02-27T01:21:47.721Z,73.3
2019-02-27T01:22:28.335Z,73.39
2019-02-27T01:23:11.036Z,73.39
2019-02-27T01:23:49.626Z,73.39
2019-02-27T01:24:30.309Z,74.06
2019-02-27T01:25:11.033Z,73.3
2019-02-27T01:25:55.952Z,73.3
2019-02-27T01:26:32.340Z,74.06
2019-02-27T01:27:13.006Z,73.87
2019-02-27T01:27:53.698Z,73.58
2019-02-27T01:28:34.556Z,73.3
2019-02-27T01:29:15.676Z,73.39
2019-02-27T01:29:55.833Z,73.3
2019-02-27T01:30:36.553Z,73.39
2019-02-27T01:31:17.259Z,73.49
2019-02-27T01:31:58.261Z,73.1
2019-02-27T01:32:38.600Z,73.2
2019-02-27T01:33:19.221Z,73.1
2019-02-27T01:33:59.831Z,73.39
2019-02-27T01:34:44.124Z,73.3
2019-02-27T01:35:21.089Z,73.39
2019-02-27T01:36:01.769Z,73.3
2019-02-27T01:36:42.373Z,73
2019-02-27T01:37:23.073Z,73.3
2019-02-27T01:38:05.250Z,73.49
2019-02-27T01:38:44.275Z,73.3
2019-02-27T01:39:24.887Z,73.58
2019-02-27T01:40:05.529Z,74.06
2019-02-27T01:40:46.247Z,73.39
2019-02-27T01:41:26.915Z,73.49
2019-02-27T01:42:07.555Z,73.39
2019-02-27T01:42:48.153Z,73.3
2019-02-27T01:43:28.789Z,73.3
2019-02-27T01:44:11.058Z,73.2
2019-02-27T01:44:50.091Z,73.2
2019-02-27T01:45:30.695Z,73.2
2019-02-27T01:46:11.319Z,73.3
2019-02-27T01:46:52.033Z,73.39
2019-02-27T01:47:35.614Z,73.2
2019-02-27T01:48:13.363Z,73.49
2019-02-27T01:48:54.008Z,73.49
2019-02-27T01:49:34.694Z,73.2
2019-02-27T01:50:15.290Z,73.39
2019-02-27T01:50:55.939Z,73.3
2019-02-27T01:51:36.629Z,73.3
2019-02-27T01:52:17.221Z,73.3
2019-02-27T01:52:57.821Z,73.3
2019-02-27T01:53:40.425Z,73.58
2019-02-27T01:54:18.991Z,73.3
2019-02-27T01:54:59.623Z,73.2
2019-02-27T01:55:40.375Z,73.39
2019-02-27T01:56:21.014Z,73.49
2019-02-27T01:57:02.760Z,73.49
2019-02-27T01:57:42.387Z,73.49
2019-02-27T01:58:23.003Z,73.58
2019-02-27T01:59:03.684Z,73.3
2019-02-27T01:59:44.406Z,73.58
2019-02-27T02:00:25.063Z,73.39
2019-02-27T02:01:05.717Z,73.39
2019-02-27T02:01:46.357Z,73.49
2019-02-27T02:02:26.963Z,73.58
2019-02-27T02:03:07.628Z,73.49
2019-02-27T02:03:48.273Z,73.58
2019-02-27T02:04:28.913Z,73.39
2019-02-27T02:05:09.579Z,73.39
2019-02-27T02:05:50.219Z,73.39
2019-02-27T02:06:32.355Z,73.58
2019-02-27T02:07:11.523Z,73.58
2019-02-27T02:07:52.186Z,73.77
2019-02-27T02:08:32.841Z,73.68
2019-02-27T02:09:13.441Z,73.58
2019-02-27T02:09:55.023Z,73.58
2019-02-27T02:10:34.708Z,73.49
2019-02-27T02:11:15.357Z,73.39
2019-02-27T02:11:56.070Z,73.77
2019-02-27T02:12:39.031Z,73.77
2019-02-27T02:13:17.425Z,73.58
2019-02-27T02:13:58.227Z,73.68
2019-02-27T02:14:38.917Z,73.49
2019-02-27T02:15:19.511Z,73.58
2019-02-27T02:16:00.815Z,73.58
2019-02-27T02:16:40.751Z,73.68
2019-02-27T02:17:21.383Z,73.39
2019-02-27T02:18:02.093Z,73.39
2019-02-27T02:18:42.727Z,73.68
2019-02-27T02:19:23.417Z,73.58
2019-02-27T02:20:04.003Z,73.77
2019-02-27T02:20:44.648Z,73.58
2019-02-27T02:21:25.231Z,73.58
2019-02-27T02:22:06.058Z,73.77
2019-02-27T02:22:46.595Z,73.39
2019-02-27T02:23:27.201Z,73.58
2019-02-27T02:24:07.917Z,73.39
2019-02-27T02:24:48.504Z,73.68
2019-02-27T02:25:29.106Z,73.49
2019-02-27T02:26:09.965Z,73.49
2019-02-27T02:26:50.611Z,73.68
2019-02-27T02:27:31.297Z,73.3
2019-02-27T02:28:12.056Z,73.3
2019-02-27T02:28:52.585Z,73.1
2019-02-27T02:29:33.357Z,73.2
2019-02-27T02:30:14.009Z,73.49
2019-02-27T02:30:54.617Z,73.39
2019-02-27T02:31:40.716Z,73.2
2019-02-27T02:32:17.320Z,73.39
2019-02-27T02:32:56.547Z,72.72
2019-02-27T02:33:37.224Z,72.63
2019-02-27T02:34:17.856Z,73.39
2019-02-27T02:34:58.547Z,72.63
2019-02-27T02:35:39.182Z,72.81
2019-02-27T02:36:24.762Z,73.39
2019-02-27T02:37:02.390Z,73.1
2019-02-27T02:37:41.225Z,73
2019-02-27T02:38:21.941Z,72.72
2019-02-27T02:39:02.614Z,72.72
2019-02-27T02:39:43.182Z,72.81
2019-02-27T02:40:23.799Z,72.91
2019-02-27T02:41:07.893Z,72.81
2019-02-27T02:41:47.862Z,72.91
2019-02-27T02:42:25.852Z,73.39
2019-02-27T02:43:06.572Z,72.81
2019-02-27T02:43:47.239Z,73
2019-02-27T02:44:27.842Z,72.81
2019-02-27T02:45:08.495Z,72.63
2019-02-27T02:45:49.100Z,72.72
2019-02-27T02:46:29.687Z,72.81
2019-02-27T02:47:10.342Z,72.91
2019-02-27T02:47:55.356Z,72.91
2019-02-27T02:48:32.080Z,72.72
2019-02-27T02:49:12.415Z,73
2019-02-27T02:49:53.074Z,72.91
2019-02-27T02:50:33.674Z,72.72
2019-02-27T02:51:14.259Z,73.2
2019-02-27T02:51:54.994Z,72.91
2019-02-27T02:52:40.128Z,72.91
2019-02-27T02:53:16.295Z,72.72
2019-02-27T02:54:00.071Z,72.81
2019-02-27T02:54:38.090Z,73.3
2019-02-27T02:55:18.268Z,73
2019-02-27T02:55:58.957Z,73.2
2019-02-27T02:56:39.559Z,72.91
2019-02-27T02:57:20.195Z,72.91
2019-02-27T02:58:00.856Z,73
2019-02-27T02:58:47.014Z,72.91
2019-02-27T02:59:24.770Z,73.2
2019-02-27T03:00:02.780Z,73.2
2019-02-27T03:00:43.453Z,72.91
2019-02-27T03:01:24.168Z,72.91
2019-02-27T03:02:04.787Z,72.81
2019-02-27T03:02:45.420Z,73.1
2019-02-27T03:03:26.091Z,73
2019-02-27T03:04:12.438Z,72.81
2019-02-27T03:04:48.187Z,73.1
2019-02-27T03:05:27.920Z,73.3
2019-02-27T03:06:08.574Z,72.72
2019-02-27T03:06:49.164Z,73.1
2019-02-27T03:07:30.024Z,73
2019-02-27T03:08:10.724Z,72.81
2019-02-27T03:08:54.878Z,72.91
2019-02-27T03:09:31.955Z,73.1
2019-02-27T03:10:12.621Z,73
2019-02-27T03:10:53.341Z,73
2019-02-27T03:11:33.952Z,73.3
2019-02-27T03:12:14.695Z,73.1
2019-02-27T03:12:55.375Z,73.3
2019-02-27T03:13:41.444Z,72.81
2019-02-27T03:14:17.527Z,72.72
2019-02-27T03:14:57.337Z,72.91
2019-02-27T03:15:38.054Z,72.72
2019-02-27T03:16:18.806Z,72.91
2019-02-27T03:16:59.400Z,72.72
2019-02-27T03:17:40.107Z,72.53
2019-02-27T03:18:20.745Z,72.72
2019-02-27T03:19:04.637Z,72.24
2019-02-27T03:19:42.550Z,72.43
2019-02-27T03:20:22.478Z,72.81
2019-02-27T03:21:03.097Z,72.81
2019-02-27T03:21:43.708Z,72.63
2019-02-27T03:22:24.296Z,72.63
2019-02-27T03:23:04.895Z,72.72
2019-02-27T03:23:50.572Z,72.63
2019-02-27T03:24:28.208Z,72.63
2019-02-27T03:25:06.707Z,72.63
2019-02-27T03:25:47.309Z,72.72
2019-02-27T03:26:27.930Z,72.72
2019-02-27T03:27:08.545Z,72.72
2019-02-27T03:27:49.154Z,73
2019-02-27T03:28:29.776Z,72.24
2019-02-27T03:29:15.491Z,72.24
2019-02-27T03:29:53.337Z,72.81
2019-02-27T03:30:36.024Z,72.81
2019-02-27T03:31:17.904Z,72.81
2019-02-27T03:31:59.756Z,72.72
2019-02-27T03:32:40.789Z,72.81
2019-02-27T03:33:22.654Z,72.72
2019-02-27T03:34:05.109Z,72.72
2019-02-27T03:34:35.170Z,72.81
2019-02-27T03:35:15.752Z,72.72
2019-02-27T03:35:56.335Z,72.72
2019-02-27T03:36:38.955Z,72.53
2019-02-27T03:37:17.531Z,72.81
2019-02-27T03:37:58.144Z,72.43
2019-02-27T03:38:38.725Z,72.91
2019-02-27T03:39:19.316Z,72.91
2019-02-27T03:39:59.903Z,73
2019-02-27T03:40:40.499Z,72.91
2019-02-27T03:41:22.765Z,72.91
2019-02-27T03:42:01.677Z,72.91
2019-02-27T03:42:42.265Z,72.39
2019-02-27T03:43:22.847Z,72.33
2019-02-27T03:44:03.447Z,72.81
2019-02-27T03:44:44.020Z,72.72
2019-02-27T03:45:30.586Z,72.81
2019-02-27T03:46:06.169Z,72.81
2019-02-27T03:46:45.803Z,72.43
2019-02-27T03:47:26.385Z,72.05
2019-02-27T03:48:06.988Z,72.43
2019-02-27T03:48:47.605Z,72.53
2019-02-27T03:49:28.200Z,72.72
2019-02-27T03:50:14.532Z,72.2
2019-02-27T03:50:50.578Z,72.43
2019-02-27T03:51:29.966Z,72.33
2019-02-27T03:52:10.554Z,72.53
2019-02-27T03:52:51.141Z,72.63
2019-02-27T03:53:31.730Z,72.39
2019-02-27T03:54:12.333Z,72.43
2019-02-27T03:54:56.817Z,72.91
2019-02-27T03:55:33.530Z,72.72
2019-02-27T03:56:14.120Z,72.81
2019-02-27T03:56:54.741Z,72.43
2019-02-27T03:57:35.337Z,72.43
2019-02-27T03:58:15.930Z,72.24
2019-02-27T03:58:56.547Z,72.63
2019-02-27T03:59:41.873Z,72.53
2019-02-27T04:00:19.075Z,72.33
2019-02-27T04:00:58.387Z,72.63
2019-02-27T04:01:38.984Z,72.43
2019-02-27T04:02:19.583Z,72.39
2019-02-27T04:03:00.170Z,72.49
2019-02-27T04:03:40.756Z,72.24
2019-02-27T04:04:21.355Z,72.53
2019-02-27T04:05:06.815Z,72.53
2019-02-27T04:05:45.985Z,72.43
2019-02-27T04:06:23.110Z,72.43
2019-02-27T04:07:03.699Z,72.53
2019-02-27T04:07:44.311Z,72.05
2019-02-27T04:08:24.893Z,72.11
2019-02-27T04:09:05.490Z,72.14
2019-02-27T04:09:46.100Z,72.63
2019-02-27T04:10:30.750Z,72.78
2019-02-27T04:11:07.377Z,72.24
2019-02-27T04:11:47.996Z,72.49
2019-02-27T04:12:28.590Z,72.11
2019-02-27T04:13:09.197Z,72.05
2019-02-27T04:13:49.779Z,72.72
2019-02-27T04:14:30.366Z,72.24
2019-02-27T04:15:10.959Z,72.24
2019-02-27T04:15:53.626Z,72.63
2019-02-27T04:16:32.160Z,71.92
2019-02-27T04:17:12.740Z,72.63
2019-02-27T04:17:53.363Z,72.11
2019-02-27T04:18:33.953Z,72.63
2019-02-27T04:19:14.535Z,72.63
2019-02-27T04:19:55.135Z,72.24
2019-02-27T04:20:35.753Z,72.24
2019-02-27T04:21:16.366Z,72.24
2019-02-27T04:22:00.443Z,72.49
2019-02-27T04:22:37.706Z,72.05
2019-02-27T04:23:18.119Z,72.11
2019-02-27T04:23:58.716Z,72.11
2019-02-27T04:24:39.299Z,72.33
2019-02-27T04:25:19.904Z,72.33
2019-02-27T04:26:05.254Z,72.33
2019-02-27T04:26:41.853Z,72.24
2019-02-27T04:27:21.674Z,72.11
2019-02-27T04:28:02.262Z,72.43
2019-02-27T04:28:42.840Z,71.95
2019-02-27T04:29:23.431Z,72.11
2019-02-27T04:30:04.015Z,72.2
2019-02-27T04:30:44.620Z,72.2
2019-02-27T04:31:29.424Z,72.59
2019-02-27T04:32:05.821Z,71.92
2019-02-27T04:32:48.558Z,72.24
2019-02-27T04:33:27.000Z,72.3
2019-02-27T04:34:07.611Z,72.3
2019-02-27T04:34:48.261Z,72.33
2019-02-27T04:35:28.855Z,72.2
2019-02-27T04:36:12.281Z,72.01
2019-02-27T04:36:50.040Z,72.24
2019-02-27T04:37:30.655Z,71.92
2019-02-27T04:38:11.241Z,72.01
2019-02-27T04:38:51.835Z,72.2
2019-02-27T04:39:32.429Z,72.3
2019-02-27T04:40:13.023Z,71.92
2019-02-27T04:40:53.619Z,72.3
2019-02-27T04:41:34.241Z,72.11
2019-02-27T04:42:14.833Z,72.11
2019-02-27T04:42:56.948Z,71.92
2019-02-27T04:43:36.029Z,72.2
2019-02-27T04:44:16.630Z,72.2
2019-02-27T04:44:57.235Z,72.11
2019-02-27T04:45:37.851Z,72.2
2019-02-27T04:46:18.878Z,72.3
2019-02-27T04:46:59.038Z,72.39
2019-02-27T04:47:39.647Z,72.39
2019-02-27T04:48:20.233Z,72.39
2019-02-27T04:49:03.875Z,72.01
2019-02-27T04:49:41.403Z,72.01
2019-02-27T04:50:22.009Z,72.3
2019-02-27T04:51:02.605Z,72.59
2019-02-27T04:51:43.208Z,72.39
2019-02-27T04:52:24.351Z,72.2
2019-02-27T04:53:04.388Z,72.43
2019-02-27T04:53:44.984Z,72.11
2019-02-27T04:54:25.627Z,72.3
2019-02-27T04:55:06.231Z,72.3
2019-02-27T04:55:47.955Z,72.39
2019-02-27T04:56:27.448Z,72.3
2019-02-27T04:57:08.045Z,72.33
2019-02-27T04:57:48.642Z,72.2
2019-02-27T04:58:31.161Z,72.33
2019-02-27T04:59:09.841Z,72.24
2019-02-27T04:59:52.219Z,72.43
2019-02-27T05:00:31.032Z,72.59
2019-02-27T05:01:11.641Z,72.39
2019-02-27T05:01:52.259Z,72.14
2019-02-27T05:02:32.891Z,72.01
2019-02-27T05:03:13.493Z,72.49
2019-02-27T05:03:54.092Z,72.59
2019-02-27T05:04:35.125Z,72.11
2019-02-27T05:05:15.282Z,72.2
2019-02-27T05:05:55.873Z,72.59
2019-02-27T05:06:36.477Z,72.43
2019-02-27T05:07:20.042Z,72.24
2019-02-27T05:07:57.665Z,72.39
2019-02-27T05:08:38.262Z,72.63
2019-02-27T05:09:18.850Z,72.59
2019-02-27T05:09:59.435Z,72.11
2019-02-27T05:10:40.500Z,72.39
2019-02-27T05:11:20.681Z,72.43
2019-02-27T05:12:01.280Z,72.11
2019-02-27T05:12:41.862Z,72.3
2019-02-27T05:13:22.463Z,72.3
2019-02-27T05:14:03.050Z,72.33
2019-02-27T05:14:43.637Z,72.39
2019-02-27T05:15:24.260Z,72.39
2019-02-27T05:16:04.841Z,72.01
2019-02-27T05:16:47.172Z,71.86
2019-02-27T05:17:26.032Z,71.82
2019-02-27T05:18:06.619Z,72.39
2019-02-27T05:18:47.239Z,71.72
2019-02-27T05:19:27.848Z,71.92
2019-02-27T05:20:11.439Z,71.82
2019-02-27T05:20:49.027Z,71.82
2019-02-27T05:21:29.621Z,72.39
2019-02-27T05:22:10.216Z,71.82
2019-02-27T05:22:50.806Z,72.24
2019-02-27T05:23:33.426Z,72.39
2019-02-27T05:24:12.025Z,72.39
2019-02-27T05:24:52.621Z,72.53
2019-02-27T05:25:33.213Z,72.3
2019-02-27T05:26:13.808Z,71.82
2019-02-27T05:26:54.450Z,71.82
2019-02-27T05:27:35.040Z,71.82
2019-02-27T05:28:15.627Z,71.72
2019-02-27T05:28:56.227Z,71.92
2019-02-27T05:29:37.524Z,71.44
2019-02-27T05:30:17.405Z,71.47
2019-02-27T05:30:58.000Z,71.92
2019-02-27T05:31:38.632Z,71.92
2019-02-27T05:32:19.245Z,71.63
2019-02-27T05:33:02.038Z,71.53
2019-02-27T05:33:40.432Z,71.72
2019-02-27T05:34:21.036Z,71.66
2019-02-27T05:35:01.609Z,71.82
2019-02-27T05:35:42.213Z,71.72
2019-02-27T05:36:22.806Z,71.63
2019-02-27T05:37:05.249Z,71.53
2019-02-27T05:37:43.994Z,71.44
2019-02-27T05:38:24.592Z,71.92
2019-02-27T05:39:05.181Z,71.63
2019-02-27T05:39:45.774Z,71.92
2019-02-27T05:40:26.654Z,71.63
2019-02-27T05:41:06.970Z,71.34
2019-02-27T05:41:47.558Z,72.01
2019-02-27T05:42:28.175Z,72.2
2019-02-27T05:43:12.905Z,71.92
2019-02-27T05:43:49.366Z,71.92
2019-02-27T05:44:30.014Z,71.92
2019-02-27T05:45:10.608Z,71.44
2019-02-27T05:45:51.197Z,71.34
2019-02-27T05:46:31.778Z,72.01
2019-02-27T05:47:12.374Z,72.11
2019-02-27T05:47:52.996Z,72.3
2019-02-27T05:48:33.578Z,71.92
2019-02-27T05:49:14.183Z,72.2
2019-02-27T05:49:54.782Z,71.72
2019-02-27T05:50:35.369Z,71.63
2019-02-27T05:51:15.958Z,71.72
2019-02-27T05:51:56.549Z,71.34
2019-02-27T05:52:37.135Z,71.72
2019-02-27T05:53:22.073Z,71.72
2019-02-27T05:53:59.111Z,71.72
2019-02-27T05:54:38.938Z,72.3
2019-02-27T05:55:19.534Z,72.11
2019-02-27T05:56:00.142Z,71.95
2019-02-27T05:56:40.770Z,71.92
2019-02-27T05:57:23.287Z,71.92
2019-02-27T05:58:01.958Z,71.92
2019-02-27T05:58:42.546Z,71.92
2019-02-27T05:59:23.131Z,71.72
2019-02-27T06:00:03.776Z,71.53
2019-02-27T06:00:44.354Z,71.53
2019-02-27T06:01:24.943Z,71.44
2019-02-27T06:02:05.537Z,71.72
2019-02-27T06:02:46.145Z,71.53
2019-02-27T06:03:26.793Z,71.44
2019-02-27T06:04:07.377Z,71.72
2019-02-27T06:04:47.968Z,71.53
2019-02-27T06:05:28.553Z,72.2
2019-02-27T06:06:11.475Z,71.92
2019-02-27T06:06:49.788Z,71.63
2019-02-27T06:07:30.377Z,71.05
2019-02-27T06:08:10.965Z,71.05
2019-02-27T06:08:51.557Z,71.25
2019-02-27T06:09:32.167Z,71.15
2019-02-27T06:10:12.841Z,71.53
2019-02-27T06:10:55.931Z,71.53
2019-02-27T06:11:33.986Z,71.53
2019-02-27T06:12:14.610Z,71.34
2019-02-27T06:12:55.187Z,71.44
2019-02-27T06:13:35.790Z,71.44
2019-02-27T06:14:16.395Z,71.34
2019-02-27T06:14:56.981Z,71.63
2019-02-27T06:15:37.616Z,71.72
2019-02-27T06:16:18.212Z,71.05
2019-02-27T06:16:58.844Z,71.63
2019-02-27T06:17:43.271Z,71.63
2019-02-27T06:18:22.575Z,71.63
2019-02-27T06:19:00.650Z,71.44
2019-02-27T06:19:41.241Z,71.25
2019-02-27T06:20:21.838Z,71.53
2019-02-27T06:21:02.434Z,71.53
2019-02-27T06:21:43.033Z,71.63
2019-02-27T06:22:23.650Z,71.34
2019-02-27T06:23:04.986Z,71.34
2019-02-27T06:23:44.829Z,71.34
2019-02-27T06:24:25.441Z,71.53
2019-02-27T06:25:06.056Z,71.63
2019-02-27T06:25:46.646Z,71.53
2019-02-27T06:26:27.258Z,71.34
2019-02-27T06:27:07.887Z,71.44
2019-02-27T06:27:48.485Z,71.34
2019-02-27T06:28:29.062Z,71.63
2019-02-27T06:29:09.644Z,71.34
2019-02-27T06:29:50.246Z,71.53
2019-02-27T06:30:31.362Z,71.53
2019-02-27T06:31:11.445Z,71.53
2019-02-27T06:31:52.041Z,71.63
2019-02-27T06:32:32.641Z,71.25
2019-02-27T06:33:13.252Z,71.15
2019-02-27T06:33:53.840Z,71.15
2019-02-27T06:34:34.435Z,71.44
2019-02-27T06:35:15.021Z,71.15
2019-02-27T06:35:55.650Z,71.15
2019-02-27T06:36:36.245Z,71.25
2019-02-27T06:37:16.826Z,71.25
2019-02-27T06:37:57.410Z,71.15
2019-02-27T06:38:38.030Z,71.15
2019-02-27T06:39:18.634Z,71.34
2019-02-27T06:39:59.212Z,71.44
2019-02-27T06:40:42.206Z,71.25
2019-02-27T06:41:20.396Z,71.53
2019-02-27T06:42:00.977Z,71.34
2019-02-27T06:42:41.570Z,71.53
2019-02-27T06:43:22.216Z,71.25
2019-02-27T06:44:02.798Z,71.25
2019-02-27T06:44:43.396Z,71.44
2019-02-27T06:45:23.997Z,71.34
2019-02-27T06:46:04.583Z,71.53
2019-02-27T06:46:45.184Z,71.05
2019-02-27T06:47:25.776Z,71.05
2019-02-27T06:48:09.314Z,70.86
2019-02-27T06:48:46.944Z,70.86
2019-02-27T06:49:27.532Z,71.25
2019-02-27T06:50:08.124Z,71.15
2019-02-27T06:50:50.109Z,71.15
2019-02-27T06:51:33.335Z,71.15
2019-02-27T06:52:13.056Z,71.05
2019-02-27T06:52:53.649Z,71.15
2019-02-27T06:53:34.273Z,70.96
2019-02-27T06:54:18.067Z,71.25
2019-02-27T06:54:55.551Z,71.15
2019-02-27T06:55:36.164Z,71.15
2019-02-27T06:56:16.832Z,70.86
2019-02-27T06:56:57.495Z,71.05
2019-02-27T06:57:40.800Z,71.05
2019-02-27T06:58:18.913Z,71.44
2019-02-27T06:58:59.496Z,71.34
2019-02-27T06:59:40.120Z,70.76
2019-02-27T07:00:20.705Z,70.48
2019-02-27T07:01:01.287Z,70.29
2019-02-27T07:01:41.876Z,70.38
2019-02-27T07:02:22.469Z,70.57
2019-02-27T07:03:03.064Z,70.48
2019-02-27T07:03:43.654Z,70.48
2019-02-27T07:04:24.271Z,70.96
2019-02-27T07:05:04.872Z,71.19
2019-02-27T07:05:48.086Z,71.05
2019-02-27T07:06:26.058Z,71.25
2019-02-27T07:07:06.786Z,71.37
2019-02-27T07:07:47.397Z,71.15
2019-02-27T07:08:27.981Z,71.15
2019-02-27T07:09:11.152Z,70.96
2019-02-27T07:09:49.188Z,71.25
2019-02-27T07:10:29.788Z,71.57
2019-02-27T07:11:11.102Z,71.15
2019-02-27T07:11:50.996Z,71.53
2019-02-27T07:12:31.592Z,71.57
2019-02-27T07:13:12.204Z,71.53
2019-02-27T07:13:52.832Z,71.44
2019-02-27T07:14:33.425Z,71.34
2019-02-27T07:15:14.007Z,71.34
2019-02-27T07:15:55.640Z,71.44
2019-02-27T07:16:35.173Z,71.34
2019-02-27T07:17:15.756Z,71.28
2019-02-27T07:17:56.356Z,71.47
2019-02-27T07:18:41.418Z,71.53
2019-02-27T07:19:17.551Z,71.44
2019-02-27T07:19:58.152Z,71.15
2019-02-27T07:20:38.754Z,71.44
2019-02-27T07:21:19.358Z,71.37
2019-02-27T07:21:59.972Z,71.53
2019-02-27T07:22:40.563Z,71.25
2019-02-27T07:23:23.565Z,71.53
2019-02-27T07:24:01.767Z,70.99
2019-02-27T07:24:42.356Z,70.96
2019-02-27T07:25:22.985Z,71.28
2019-02-27T07:26:03.584Z,71.09
2019-02-27T07:26:44.312Z,71.19
2019-02-27T07:27:24.938Z,70.9
2019-02-27T07:28:08.111Z,70.51
2019-02-27T07:28:46.346Z,70.51
2019-02-27T07:29:27.395Z,70.61
2019-02-27T07:30:08.107Z,70.51
2019-02-27T07:30:48.148Z,70.51
2019-02-27T07:31:28.746Z,70.61
2019-02-27T07:32:09.554Z,71.28
2019-02-27T07:32:50.200Z,70.61
2019-02-27T07:33:30.806Z,70.7
2019-02-27T07:34:14.184Z,70.7
2019-02-27T07:34:51.968Z,70.32
2019-02-27T07:35:32.651Z,70.51
2019-02-27T07:36:13.970Z,70.51
2019-02-27T07:36:54.774Z,70.61
2019-02-27T07:37:35.356Z,70.51
2019-02-27T07:38:16.140Z,70.51
2019-02-27T07:38:57.459Z,70.42
2019-02-27T07:39:37.660Z,70.61
2019-02-27T07:40:18.238Z,70.42
2019-02-27T07:40:58.882Z,70.32
2019-02-27T07:41:39.484Z,70.51
2019-02-27T07:42:20.080Z,70.51
2019-02-27T07:43:03.236Z,70.8
2019-02-27T07:43:41.344Z,70.7
2019-02-27T07:44:21.942Z,70.7
2019-02-27T07:45:02.560Z,70.51
2019-02-27T07:45:45.373Z,70.61
2019-02-27T07:46:23.778Z,70.8
2019-02-27T07:47:04.360Z,70.7
2019-02-27T07:47:44.953Z,70.32
2019-02-27T07:48:25.589Z,70.51
2019-02-27T07:49:06.194Z,70.42
2019-02-27T07:49:48.223Z,70.23
2019-02-27T07:50:27.379Z,70.23
2019-02-27T07:51:08.098Z,70.8
2019-02-27T07:51:48.695Z,70.8
2019-02-27T07:52:32.050Z,70.7
2019-02-27T07:53:09.892Z,70.7
2019-02-27T07:53:51.353Z,70.51
2019-02-27T07:54:31.108Z,70.51
2019-02-27T07:55:18.733Z,70.13
2019-02-27T07:55:52.357Z,70.51
2019-02-27T07:56:32.970Z,70.7
2019-02-27T07:57:13.564Z,70.42
2019-02-27T07:57:58.331Z,70.42
2019-02-27T07:58:34.774Z,70.23
2019-02-27T07:59:15.368Z,70.7
2019-02-27T07:59:55.972Z,70.13
2019-02-27T08:00:36.549Z,70.42
2019-02-27T08:01:17.141Z,70.7
2019-02-27T08:02:02.063Z,70.42
2019-02-27T08:02:38.317Z,70.8
2019-02-27T08:03:18.913Z,70.42
2019-02-27T08:03:59.504Z,70.23
2019-02-27T08:04:40.101Z,70.23
2019-02-27T08:05:20.698Z,70.32
2019-02-27T08:06:02.383Z,70.42
2019-02-27T08:06:41.890Z,70.61
2019-02-27T08:07:22.515Z,70.42
2019-02-27T08:08:03.088Z,70.42
2019-02-27T08:08:43.712Z,70.42
2019-02-27T08:09:24.310Z,70.23
2019-02-27T08:10:04.915Z,70.61
2019-02-27T08:10:45.525Z,70.03
2019-02-27T08:11:26.524Z,70.23
2019-02-27T08:12:06.727Z,70.23
2019-02-27T08:12:47.326Z,70.23
2019-02-27T08:13:29.617Z,70.13
2019-02-27T08:14:08.494Z,70.13
2019-02-27T08:14:49.104Z,69.84
2019-02-27T08:15:29.682Z,70.03
2019-02-27T08:16:10.312Z,69.84
2019-02-27T08:16:50.898Z,70.13
2019-02-27T08:17:31.488Z,70.23
2019-02-27T08:18:12.163Z,69.84
2019-02-27T08:18:52.676Z,70.03
2019-02-27T08:19:33.294Z,69.93
2019-02-27T08:20:13.881Z,69.84
2019-02-27T08:20:55.247Z,69.84
2019-02-27T08:21:35.082Z,70.32
2019-02-27T08:22:15.678Z,70.13
2019-02-27T08:22:56.762Z,70.13
2019-02-27T08:23:36.846Z,70.23
2019-02-27T08:24:17.492Z,70.42
2019-02-27T08:24:58.166Z,70.7
2019-02-27T08:25:38.738Z,70.03
2019-02-27T08:26:19.320Z,70.42
2019-02-27T08:26:59.919Z,70.03
2019-02-27T08:27:42.800Z,69.84
2019-02-27T08:28:21.084Z,69.93
2019-02-27T08:29:01.678Z,70.13
2019-02-27T08:29:42.277Z,70.23
2019-02-27T08:30:22.856Z,70.03
2019-02-27T08:31:03.432Z,70.23
2019-02-27T08:31:44.020Z,70.13
2019-02-27T08:32:24.632Z,70.13
2019-02-27T08:33:08.106Z,70.32
2019-02-27T08:33:45.836Z,70.32
2019-02-27T08:34:26.418Z,69.74
2019-02-27T08:35:07.016Z,69.84
2019-02-27T08:35:47.680Z,70.13
2019-02-27T08:36:28.286Z,69.84
2019-02-27T08:37:08.874Z,70.51
2019-02-27T08:37:49.482Z,70.13
2019-02-27T08:38:30.093Z,70.23
2019-02-27T08:39:10.684Z,70.32
2019-02-27T08:39:51.292Z,70.23
2019-02-27T08:40:31.880Z,70.32
2019-02-27T08:41:12.465Z,70.23
2019-02-27T08:41:53.098Z,69.74
2019-02-27T08:42:36.782Z,70.61
2019-02-27T08:43:14.284Z,70.51
2019-02-27T08:43:54.876Z,70.61
2019-02-27T08:44:35.466Z,71.09
2019-02-27T08:45:19.512Z,71.28
2019-02-27T08:45:56.646Z,71.28
2019-02-27T08:46:37.718Z,71.19
2019-02-27T08:47:17.869Z,71.09
2019-02-27T08:47:58.470Z,70.99
2019-02-27T08:48:39.060Z,71.19
2019-02-27T08:49:23.915Z,70.8
2019-02-27T08:50:00.309Z,70.8